Time,TemperatureF,DewpointF,PressureIn,WindDirection,WindDirectionDegrees,WindSpeedMPH,WindSpeedGustMPH,Humidity,HourlyPrecipIn,Conditions,Clouds,dailyrainin,SoftwareType,DateUTC
2013-05-22 00:14:00,51.1,34.0,30.00,NNW,333,0.0,-999.0,53,-99.99,,,0.00,weatherlink.com 1.10,2013-05-22 07:14:00,
2013-05-22 00:29:00,50.7,34.0,30.00,WNW,301,0.0,-999.0,54,-99.99,,,0.00,weatherlink.com 1.10,2013-05-22 07:29:00,
2013-05-22 00:44:00,50.6,34.0,30.00,NE,37,0.0,-999.0,54,-99.99,,,0.00,weatherlink.com 1.10,2013-05-22 07:44:00,
2013-05-22 00:59:00,50.4,34.0,30.00,NW,319,0.0,-999.0,53,-99.99,,,0.00,weatherlink.com 1.10,2013-05-22 07:59:00,
2013-05-22 01:14:00,50.2,33.0,30.00,NNW,340,0.0,-999.0,53,-99.99,,,0.00,weatherlink.com 1.10,2013-05-22 08:14:00,
2013-05-22 01:29:00,50.0,33.0,30.01,NW,319,0.0,-999.0,52,-99.99,,,0.00,weatherlink.com 1.10,2013-05-22 08:29:00,
2013-05-22 01:44:00,49.8,33.0,30.00,WNW,300,0.0,-999.0,52,-99.99,,,0.00,weatherlink.com 1.10,2013-05-22 08:44:00,
2013-05-22 01:59:00,49.6,32.0,30.00,WNW,296,0.0,-999.0,52,-99.99,,,0.00,weatherlink.com 1.10,2013-05-22 08:59:00,
2013-05-22 02:14:00,49.6,32.0,30.00,North,5,0.0,-999.0,51,-99.99,,,0.00,weatherlink.com 1.10,2013-05-22 09:14:00,
2013-05-22 02:29:00,49.4,32.0,30.01,West,277,0.0,-999.0,51,-99.99,,,0.00,weatherlink.com 1.10,2013-05-22 09:29:00,
2013-05-22 02:44:00,49.4,32.0,30.01,NW,318,0.0,-999.0,51,-99.99,,,0.00,weatherlink.com 1.10,2013-05-22 09:44:00,
2013-05-22 02:59:00,49.2,32.0,30.02,NW,309,0.0,-999.0,51,-99.99,,,0.00,weatherlink.com 1.10,2013-05-22 09:59:00,
2013-05-22 03:14:00,49.0,31.0,30.02,NW,313,0.0,-999.0,51,-99.99,,,0.00,weatherlink.com 1.10,2013-05-22 10:14:00,
2013-05-22 03:29:00,48.7,31.0,30.02,WNW,301,0.0,-999.0,51,-99.99,,,0.00,weatherlink.com 1.10,2013-05-22 10:29:00,
2013-05-22 03:44:00,48.5,31.0,30.02,North,349,0.0,-999.0,51,-99.99,,,0.00,weatherlink.com 1.10,2013-05-22 10:44:00,
2013-05-22 03:59:00,48.5,30.0,30.01,NNW,331,0.0,-999.0,50,-99.99,,,0.00,weatherlink.com 1.10,2013-05-22 10:59:00,
2013-05-22 04:15:00,48.2,31.0,30.00,North,349,0.0,-999.0,51,-99.99,,,0.00,weatherlink.com 1.10,2013-05-22 11:15:00,
2013-05-22 04:30:00,48.0,30.0,30.00,NNE,17,0.0,-999.0,51,-99.99,,,0.00,weatherlink.com 1.10,2013-05-22 11:30:00,
2013-05-22 04:45:00,47.5,30.0,30.00,NW,309,0.0,-999.0,52,-99.99,,,0.00,weatherlink.com 1.10,2013-05-22 11:45:00,
2013-05-22 05:00:00,46.8,31.0,30.00,NW,309,0.0,-999.0,54,-99.99,,,0.00,weatherlink.com 1.10,2013-05-22 12:00:00,
2013-05-22 05:15:00,46.0,31.0,30.01,NW,323,0.0,-999.0,56,-99.99,,,0.00,weatherlink.com 1.10,2013-05-22 12:15:00,
2013-05-22 05:30:00,45.6,31.0,30.02,NW,307,0.0,-999.0,58,-99.99,,,0.00,weatherlink.com 1.10,2013-05-22 12:30:00,
2013-05-22 05:45:00,45.5,32.0,30.01,NNW,340,0.0,-999.0,59,-99.99,,,0.00,weatherlink.com 1.10,2013-05-22 12:45:00,
2013-05-22 06:00:00,45.4,32.0,30.02,WNW,300,0.0,-999.0,60,-99.99,,,0.00,weatherlink.com 1.10,2013-05-22 13:00:00,
2013-05-22 06:15:00,45.2,32.0,30.02,WNW,299,0.0,-999.0,60,-99.99,,,0.00,weatherlink.com 1.10,2013-05-22 13:15:00,
2013-05-22 06:30:00,45.3,32.0,30.02,NW,318,0.0,-999.0,61,-99.99,,,0.00,weatherlink.com 1.10,2013-05-22 13:30:00,
2013-05-22 06:45:00,46.1,33.0,30.02,NW,306,0.0,-999.0,60,-99.99,,,0.00,weatherlink.com 1.10,2013-05-22 13:45:00,
2013-05-22 07:00:00,47.2,32.0,30.02,NW,324,0.0,-999.0,56,-99.99,,,0.00,weatherlink.com 1.10,2013-05-22 14:00:00,
2013-05-22 07:15:00,48.1,32.0,30.03,NW,313,0.0,-999.0,55,-99.99,,,0.00,weatherlink.com 1.10,2013-05-22 14:15:00,
2013-05-22 07:30:00,48.9,33.0,30.02,NW,323,0.0,-999.0,54,-99.99,,,0.00,weatherlink.com 1.10,2013-05-22 14:30:00,
2013-05-22 07:45:00,49.8,33.0,30.03,NNW,336,0.0,-999.0,52,-99.99,,,0.00,weatherlink.com 1.10,2013-05-22 14:45:00,
2013-05-22 08:00:00,50.3,33.0,30.03,NNW,327,0.0,-999.0,52,-99.99,,,0.00,weatherlink.com 1.10,2013-05-22 15:00:00,
2013-05-22 08:15:00,51.0,32.0,30.03,NW,321,0.0,-999.0,49,-99.99,,,0.00,weatherlink.com 1.10,2013-05-22 15:15:00,
2013-05-22 08:30:00,51.8,31.0,30.03,North,5,0.0,-999.0,46,-99.99,,,0.00,weatherlink.com 1.10,2013-05-22 15:30:00,
2013-05-22 08:45:00,52.7,32.0,30.02,North,355,0.0,-999.0,45,-99.99,,,0.00,weatherlink.com 1.10,2013-05-22 15:45:00,
2013-05-22 09:00:00,53.4,31.0,30.02,NW,305,0.0,-999.0,43,-99.99,,,0.00,weatherlink.com 1.10,2013-05-22 16:00:00,
2013-05-22 09:15:00,54.5,32.0,30.02,NNW,332,0.0,-999.0,42,-99.99,,,0.00,weatherlink.com 1.10,2013-05-22 16:15:00,
2013-05-22 09:30:00,55.2,32.0,30.02,NNW,341,0.0,-999.0,42,-99.99,,,0.00,weatherlink.com 1.10,2013-05-22 16:30:00,
2013-05-22 09:45:00,56.1,33.0,30.01,NW,315,0.0,-999.0,42,-99.99,,,0.00,weatherlink.com 1.10,2013-05-22 16:45:00,
2013-05-22 10:00:00,57.3,33.0,30.01,NE,34,0.0,-999.0,40,-99.99,,,0.00,weatherlink.com 1.10,2013-05-22 17:00:00,
2013-05-22 10:15:00,58.2,33.0,30.00,NW,318,0.0,-999.0,39,-99.99,,,0.00,weatherlink.com 1.10,2013-05-22 17:15:00,
2013-05-22 10:30:00,58.6,32.0,30.00,NW,317,0.0,-999.0,37,-99.99,,,0.00,weatherlink.com 1.10,2013-05-22 17:30:00,
2013-05-22 10:45:00,59.0,33.0,30.00,NNW,339,0.0,-999.0,37,-99.99,,,0.00,weatherlink.com 1.10,2013-05-22 17:45:00,
2013-05-22 11:00:00,59.7,34.0,30.00,WSW,257,0.0,-999.0,38,-99.99,,,0.00,weatherlink.com 1.10,2013-05-22 18:00:00,
2013-05-22 11:15:00,60.2,34.0,30.00,NW,315,0.0,-999.0,37,-99.99,,,0.00,weatherlink.com 1.10,2013-05-22 18:15:00,
2013-05-22 11:30:00,60.2,33.0,29.99,WNW,296,0.0,-999.0,36,-99.99,,,0.00,weatherlink.com 1.10,2013-05-22 18:30:00,
2013-05-22 11:45:00,61.1,35.0,29.99,NW,308,0.0,-999.0,38,-99.99,,,0.00,weatherlink.com 1.10,2013-05-22 18:45:00,
2013-05-22 12:00:00,61.4,33.0,29.98,NW,314,0.0,-999.0,34,-99.99,,,0.00,weatherlink.com 1.10,2013-05-22 19:00:00,
2013-05-22 12:15:00,62.5,34.0,29.97,NW,310,0.0,-999.0,34,-99.99,,,0.00,weatherlink.com 1.10,2013-05-22 19:15:00,
2013-05-22 12:30:00,63.4,34.0,29.97,NE,46,0.0,-999.0,33,-99.99,,,0.00,weatherlink.com 1.10,2013-05-22 19:30:00,
2013-05-22 12:45:00,64.0,33.0,29.96,NNW,329,0.0,-999.0,32,-99.99,,,0.00,weatherlink.com 1.10,2013-05-22 19:45:00,
2013-05-22 13:00:00,64.4,32.0,29.96,SW,226,0.0,-999.0,30,-99.99,,,0.00,weatherlink.com 1.10,2013-05-22 20:00:00,
2013-05-22 13:15:00,65.4,32.0,29.95,West,275,0.0,-999.0,29,-99.99,,,0.00,weatherlink.com 1.10,2013-05-22 20:15:00,
2013-05-22 13:30:00,65.4,32.0,29.94,NW,321,0.0,-999.0,29,-99.99,,,0.00,weatherlink.com 1.10,2013-05-22 20:30:00,
2013-05-22 13:45:00,65.9,30.0,29.94,WNW,296,0.0,-999.0,26,-99.99,,,0.00,weatherlink.com 1.10,2013-05-22 20:45:00,
2013-05-22 14:00:00,66.7,31.0,29.93,WNW,285,0.0,-999.0,26,-99.99,,,0.00,weatherlink.com 1.10,2013-05-22 21:00:00,
2013-05-22 14:15:00,67.4,29.0,29.93,SW,223,0.0,-999.0,24,-99.99,,,0.00,weatherlink.com 1.10,2013-05-22 21:15:00,
2013-05-22 14:30:00,68.1,31.0,29.93,NW,304,0.0,-999.0,25,-99.99,,,0.00,weatherlink.com 1.10,2013-05-22 21:30:00,
2013-05-22 14:45:00,68.6,39.0,29.92,NNW,330,0.0,-999.0,34,-99.99,,,0.00,weatherlink.com 1.10,2013-05-22 21:45:00,
2013-05-22 15:00:00,68.0,40.0,29.92,WNW,295,0.0,-999.0,36,-99.99,,,0.00,weatherlink.com 1.10,2013-05-22 22:00:00,
2013-05-22 15:15:00,67.3,41.0,29.91,South,172,0.0,-999.0,38,-99.99,,,0.00,weatherlink.com 1.10,2013-05-22 22:15:00,
2013-05-22 15:45:00,67.6,43.0,29.91,West,275,0.0,-999.0,41,-99.99,,,0.00,weatherlink.com 1.10,2013-05-22 22:45:00,
2013-05-22 16:00:00,67.4,42.0,29.90,SW,235,0.0,-999.0,40,-99.99,,,0.00,weatherlink.com 1.10,2013-05-22 23:00:00,
2013-05-22 16:15:00,67.6,42.0,29.90,WNW,297,0.0,-999.0,40,-99.99,,,0.00,weatherlink.com 1.10,2013-05-22 23:15:00,
2013-05-22 16:30:00,67.5,42.0,29.89,WNW,284,0.0,-999.0,39,-99.99,,,0.00,weatherlink.com 1.10,2013-05-22 23:30:00,
2013-05-22 16:45:00,66.9,42.0,29.90,WNW,286,0.0,-999.0,40,-99.99,,,0.00,weatherlink.com 1.10,2013-05-22 23:45:00,
2013-05-22 17:00:00,66.9,40.0,29.90,West,277,0.0,-999.0,38,-99.99,,,0.00,weatherlink.com 1.10,2013-05-23 00:00:00,
2013-05-22 17:15:00,66.7,41.0,29.89,West,274,0.0,-999.0,39,-99.99,,,0.00,weatherlink.com 1.10,2013-05-23 00:15:00,
2013-05-22 17:30:00,67.2,42.0,29.89,NW,317,0.0,-999.0,40,-99.99,,,0.00,weatherlink.com 1.10,2013-05-23 00:30:00,
2013-05-22 17:45:00,66.7,42.0,29.89,WNW,302,0.0,-999.0,40,-99.99,,,0.00,weatherlink.com 1.10,2013-05-23 00:45:00,
2013-05-22 18:01:00,66.5,42.0,29.89,ENE,74,0.0,-999.0,41,-99.99,,,0.00,weatherlink.com 1.10,2013-05-23 01:01:00,
2013-05-22 18:16:00,65.9,39.0,29.89,NNW,341,0.0,-999.0,38,-99.99,,,0.00,weatherlink.com 1.10,2013-05-23 01:16:00,
2013-05-22 18:31:00,65.1,39.0,29.89,NW,324,0.0,-999.0,39,-99.99,,,0.00,weatherlink.com 1.10,2013-05-23 01:31:00,
2013-05-22 18:46:00,63.9,39.0,29.89,SE,132,0.0,-999.0,40,-99.99,,,0.00,weatherlink.com 1.10,2013-05-23 01:46:00,
2013-05-22 19:01:00,63.3,39.0,29.89,NNW,334,0.0,-999.0,41,-99.99,,,0.00,weatherlink.com 1.10,2013-05-23 02:01:00,
2013-05-22 19:16:00,62.5,40.0,29.90,NW,317,0.0,-999.0,43,-99.99,,,0.00,weatherlink.com 1.10,2013-05-23 02:16:00,
2013-05-22 19:31:00,61.9,39.0,29.90,NW,319,0.0,-999.0,43,-99.99,,,0.00,weatherlink.com 1.10,2013-05-23 02:31:00,
2013-05-22 19:46:00,60.8,39.0,29.90,NNW,342,0.0,-999.0,45,-99.99,,,0.00,weatherlink.com 1.10,2013-05-23 02:46:00,
2013-05-22 20:01:00,59.5,39.0,29.90,NNW,329,0.0,-999.0,46,-99.99,,,0.00,weatherlink.com 1.10,2013-05-23 03:01:00,
2013-05-22 20:16:00,58.4,39.0,29.91,NW,315,0.0,-999.0,48,-99.99,,,0.00,weatherlink.com 1.10,2013-05-23 03:16:00,
2013-05-22 20:31:00,57.7,39.0,29.91,NNW,345,0.0,-999.0,50,-99.99,,,0.00,weatherlink.com 1.10,2013-05-23 03:31:00,
2013-05-22 20:46:00,57.1,39.0,29.91,NNE,30,0.0,-999.0,51,-99.99,,,0.00,weatherlink.com 1.10,2013-05-23 03:46:00,
2013-05-22 21:01:00,56.5,39.0,29.91,North,351,0.0,-999.0,52,-99.99,,,0.00,weatherlink.com 1.10,2013-05-23 04:01:00,
2013-05-22 22:14:00,54.3,39.0,29.92,NW,319,0.0,-999.0,57,-99.99,,,0.00,weatherlink.com 1.10,2013-05-23 05:14:00,
2013-05-22 22:32:00,53.9,39.0,29.92,NW,320,0.0,-999.0,58,-99.99,,,0.00,weatherlink.com 1.10,2013-05-23 05:32:00,
2013-05-22 22:47:00,53.5,39.0,29.92,NNW,327,0.0,-999.0,59,-99.99,,,0.00,weatherlink.com 1.10,2013-05-23 05:47:00,
2013-05-22 23:02:00,53.3,39.0,29.92,NW,319,0.0,-999.0,59,-99.99,,,0.00,weatherlink.com 1.10,2013-05-23 06:02:00,
2013-05-22 23:17:00,52.9,39.0,29.92,West,280,0.0,-999.0,60,-99.99,,,0.00,weatherlink.com 1.10,2013-05-23 06:17:00,
2013-05-22 23:32:00,52.6,39.0,29.92,NW,326,0.0,-999.0,61,-99.99,,,0.00,weatherlink.com 1.10,2013-05-23 06:32:00,
2013-05-22 23:47:00,52.2,39.0,29.91,NW,319,0.0,-999.0,62,-99.99,,,0.00,weatherlink.com 1.10,2013-05-23 06:47:00,